sensor_id;sensor_type;location;lat;lon;timestamp;temperature;humidity
49821;DHT22;36893;52.520;13.450;2023-04-05T00:01:12;21.80;69.00
49821;DHT22;36893;52.520;13.450;2023-04-05T00:11:13;21.70;68.90
49821;DHT22;36893;52.520;13.450;2023-04-05T00:21:13;21.70;68.80
49821;DHT22;36893;52.520;13.450;2023-04-05T00:31:16;21.70;68.80
49821;DHT22;36893;52.520;13.450;2023-04-05T00:41:17;21.70;68.80
49821;DHT22;36893;52.520;13.450;2023-04-05T00:51:17;21.60;68.70
49821;DHT22;36893;52.520;13.450;2023-04-05T01:01:20;21.60;68.60
49821;DHT22;36893;52.520;13.450;2023-04-05T01:11:22;21.60;68.60
49821;DHT22;36893;52.520;13.450;2023-04-05T01:31:47;21.60;68.50
49821;DHT22;36893;52.520;13.450;2023-04-05T01:41:50;21.50;68.40
49821;DHT22;36893;52.520;13.450;2023-04-05T01:51:50;21.50;68.30
49821;DHT22;36893;52.520;13.450;2023-04-05T02:01:51;21.50;68.30
49821;DHT22;36893;52.520;13.450;2023-04-05T02:11:52;21.50;68.30
49821;DHT22;36893;52.520;13.450;2023-04-05T02:21:52;21.50;68.30
49821;DHT22;36893;52.520;13.450;2023-04-05T02:31:54;21.40;68.20
49821;DHT22;36893;52.520;13.450;2023-04-05T02:41:55;21.40;68.10
49821;DHT22;36893;52.520;13.450;2023-04-05T02:51:55;21.40;68.10
49821;DHT22;36893;52.520;13.450;2023-04-05T03:01:56;21.40;68.00
49821;DHT22;36893;52.520;13.450;2023-04-05T03:11:57;21.40;68.00
49821;DHT22;36893;52.520;13.450;2023-04-05T03:21:58;21.40;67.90
49821;DHT22;36893;52.520;13.450;2023-04-05T03:31:59;21.40;67.90
49821;DHT22;36893;52.520;13.450;2023-04-05T03:41:59;21.40;67.90
49821;DHT22;36893;52.520;13.450;2023-04-05T03:52:00;21.40;68.20
49821;DHT22;36893;52.520;13.450;2023-04-05T04:02:01;21.30;67.70
49821;DHT22;36893;52.520;13.450;2023-04-05T04:12:02;21.30;67.70
49821;DHT22;36893;52.520;13.450;2023-04-05T04:22:03;21.30;67.60
49821;DHT22;36893;52.520;13.450;2023-04-05T04:32:03;21.30;67.50
49821;DHT22;36893;52.520;13.450;2023-04-05T04:42:06;21.30;67.50
49821;DHT22;36893;52.520;13.450;2023-04-05T04:52:11;21.40;67.60
49821;DHT22;36893;52.520;13.450;2023-04-05T05:02:11;21.30;67.50
49821;DHT22;36893;52.520;13.450;2023-04-05T05:12:12;21.30;67.50
49821;DHT22;36893;52.520;13.450;2023-04-05T05:22:13;21.30;67.50
49821;DHT22;36893;52.520;13.450;2023-04-05T05:32:13;21.30;67.60
49821;DHT22;36893;52.520;13.450;2023-04-05T05:42:16;21.30;67.70
49821;DHT22;36893;52.520;13.450;2023-04-05T05:52:18;21.30;67.70
49821;DHT22;36893;52.520;13.450;2023-04-05T06:02:18;21.30;67.80
49821;DHT22;36893;52.520;13.450;2023-04-05T06:12:22;21.30;67.80
49821;DHT22;36893;52.520;13.450;2023-04-05T06:22:23;21.30;67.80
49821;DHT22;36893;52.520;13.450;2023-04-05T06:32:24;21.30;67.70
49821;DHT22;36893;52.520;13.450;2023-04-05T06:42:24;21.30;67.70
49821;DHT22;36893;52.520;13.450;2023-04-05T06:52:25;21.30;67.60
49821;DHT22;36893;52.520;13.450;2023-04-05T07:02:26;21.30;67.70
49821;DHT22;36893;52.520;13.450;2023-04-05T07:12:26;21.30;67.70
49821;DHT22;36893;52.520;13.450;2023-04-05T07:22:27;21.30;67.80
49821;DHT22;36893;52.520;13.450;2023-04-05T07:32:28;21.30;67.90
49821;DHT22;36893;52.520;13.450;2023-04-05T07:42:28;21.30;67.90
49821;DHT22;36893;52.520;13.450;2023-04-05T07:52:31;21.30;67.90
49821;DHT22;36893;52.520;13.450;2023-04-05T08:02:31;21.30;68.00
49821;DHT22;36893;52.520;13.450;2023-04-05T08:12:33;21.30;68.00
49821;DHT22;36893;52.520;13.450;2023-04-05T08:22:34;21.30;68.10
49821;DHT22;36893;52.520;13.450;2023-04-05T08:32:34;21.30;68.20
49821;DHT22;36893;52.520;13.450;2023-04-05T08:42:39;21.30;68.20
49821;DHT22;36893;52.520;13.450;2023-04-05T08:52:45;21.30;68.30
49821;DHT22;36893;52.520;13.450;2023-04-05T09:02:53;21.40;68.30
49821;DHT22;36893;52.520;13.450;2023-04-05T09:12:56;21.40;68.30
49821;DHT22;36893;52.520;13.450;2023-04-05T09:22:58;21.50;68.30
49821;DHT22;36893;52.520;13.450;2023-04-05T09:32:58;21.50;68.40
49821;DHT22;36893;52.520;13.450;2023-04-05T09:42:59;21.60;68.40
49821;DHT22;36893;52.520;13.450;2023-04-05T09:53:11;21.70;68.50
49821;DHT22;36893;52.520;13.450;2023-04-05T10:03:15;21.70;68.60
49821;DHT22;36893;52.520;13.450;2023-04-05T10:13:16;21.70;68.50
49821;DHT22;36893;52.520;13.450;2023-04-05T10:23:23;21.80;68.60
49821;DHT22;36893;52.520;13.450;2023-04-05T10:33:29;21.80;68.60
49821;DHT22;36893;52.520;13.450;2023-04-05T10:43:38;21.80;68.80
49821;DHT22;36893;52.520;13.450;2023-04-05T10:53:40;21.80;69.20
49821;DHT22;36893;52.520;13.450;2023-04-05T11:13:56;21.80;70.50
49821;DHT22;36893;52.520;13.450;2023-04-05T11:24:03;21.80;71.30
49821;DHT22;36893;52.520;13.450;2023-04-05T11:34:11;21.80;71.70
49821;DHT22;36893;52.520;13.450;2023-04-05T11:44:15;21.80;71.90
49821;DHT22;36893;52.520;13.450;2023-04-05T11:54:32;21.80;72.00
49821;DHT22;36893;52.520;13.450;2023-04-05T12:04:37;21.80;72.30
49821;DHT22;36893;52.520;13.450;2023-04-05T12:14:38;21.80;72.40
49821;DHT22;36893;52.520;13.450;2023-04-05T12:24:39;21.80;72.80
49821;DHT22;36893;52.520;13.450;2023-04-05T12:34:46;21.80;73.10
49821;DHT22;36893;52.520;13.450;2023-04-05T12:45:02;21.80;73.50
49821;DHT22;36893;52.520;13.450;2023-04-05T12:55:15;21.80;73.80
49821;DHT22;36893;52.520;13.450;2023-04-05T13:05:16;21.80;73.90
49821;DHT22;36893;52.520;13.450;2023-04-05T13:15:18;21.80;74.00
49821;DHT22;36893;52.520;13.450;2023-04-05T13:25:18;21.80;74.00
49821;DHT22;36893;52.520;13.450;2023-04-05T13:35:19;21.80;74.00
49821;DHT22;36893;52.520;13.450;2023-04-05T13:45:20;21.70;73.90
49821;DHT22;36893;52.520;13.450;2023-04-05T13:55:20;21.70;73.90
49821;DHT22;36893;52.520;13.450;2023-04-05T14:05:21;21.70;73.70
49821;DHT22;36893;52.520;13.450;2023-04-05T14:15:22;21.70;73.70
49821;DHT22;36893;52.520;13.450;2023-04-05T14:25:22;21.60;73.50
49821;DHT22;36893;52.520;13.450;2023-04-05T14:35:23;21.60;73.50
49821;DHT22;36893;52.520;13.450;2023-04-05T14:45:24;21.60;73.40
49821;DHT22;36893;52.520;13.450;2023-04-05T14:55:27;21.60;73.30
49821;DHT22;36893;52.520;13.450;2023-04-05T15:05:28;21.60;73.30
49821;DHT22;36893;52.520;13.450;2023-04-05T15:15:28;21.60;73.20
49821;DHT22;36893;52.520;13.450;2023-04-05T15:25:30;21.60;73.10
49821;DHT22;36893;52.520;13.450;2023-04-05T15:35:31;21.50;73.00
49821;DHT22;36893;52.520;13.450;2023-04-05T15:45:35;21.50;72.90
49821;DHT22;36893;52.520;13.450;2023-04-05T15:55:35;21.50;72.90
49821;DHT22;36893;52.520;13.450;2023-04-05T16:05:36;21.50;72.90
49821;DHT22;36893;52.520;13.450;2023-04-05T16:15:37;21.40;72.90
49821;DHT22;36893;52.520;13.450;2023-04-05T16:25:37;21.40;72.90
49821;DHT22;36893;52.520;13.450;2023-04-05T16:35:38;21.40;72.80
49821;DHT22;36893;52.520;13.450;2023-04-05T16:45:38;21.40;72.80
49821;DHT22;36893;52.520;13.450;2023-04-05T16:55:39;21.40;72.90
49821;DHT22;36893;52.520;13.450;2023-04-05T17:05:40;21.30;72.70
49821;DHT22;36893;52.520;13.450;2023-04-05T17:15:40;21.30;72.70
49821;DHT22;36893;52.520;13.450;2023-04-05T17:25:44;21.30;72.70
49821;DHT22;36893;52.520;13.450;2023-04-05T17:35:45;21.30;72.60
49821;DHT22;36893;52.520;13.450;2023-04-05T17:45:47;21.30;72.70
49821;DHT22;36893;52.520;13.450;2023-04-05T17:55:47;21.20;72.40
49821;DHT22;36893;52.520;13.450;2023-04-05T18:05:52;21.20;72.40
49821;DHT22;36893;52.520;13.450;2023-04-05T18:15:57;21.20;72.30
49821;DHT22;36893;52.520;13.450;2023-04-05T18:26:04;21.20;72.30
49821;DHT22;36893;52.520;13.450;2023-04-05T18:36:06;21.20;72.30
49821;DHT22;36893;52.520;13.450;2023-04-05T18:46:09;21.20;72.20
49821;DHT22;36893;52.520;13.450;2023-04-05T18:56:17;21.20;72.20
49821;DHT22;36893;52.520;13.450;2023-04-05T19:06:18;21.10;72.00
49821;DHT22;36893;52.520;13.450;2023-04-05T19:16:19;21.10;72.00
49821;DHT22;36893;52.520;13.450;2023-04-05T19:26:19;21.10;71.90
49821;DHT22;36893;52.520;13.450;2023-04-05T19:36:20;21.10;71.90
49821;DHT22;36893;52.520;13.450;2023-04-05T19:46:21;21.10;71.90
49821;DHT22;36893;52.520;13.450;2023-04-05T19:56:29;21.10;71.80
49821;DHT22;36893;52.520;13.450;2023-04-05T20:06:31;21.10;71.80
49821;DHT22;36893;52.520;13.450;2023-04-05T20:16:35;21.00;71.70
49821;DHT22;36893;52.520;13.450;2023-04-05T20:26:36;21.00;71.60
49821;DHT22;36893;52.520;13.450;2023-04-05T20:36:44;21.00;71.60
49821;DHT22;36893;52.520;13.450;2023-04-05T20:46:48;21.00;71.60
49821;DHT22;36893;52.520;13.450;2023-04-05T20:56:50;21.00;71.60
49821;DHT22;36893;52.520;13.450;2023-04-05T21:06:52;21.00;71.50
49821;DHT22;36893;52.520;13.450;2023-04-05T21:16:53;21.00;71.50
49821;DHT22;36893;52.520;13.450;2023-04-05T21:26:53;20.90;72.20
49821;DHT22;36893;52.520;13.450;2023-04-05T21:36:54;20.90;71.30
49821;DHT22;36893;52.520;13.450;2023-04-05T21:46:55;20.90;71.30
49821;DHT22;36893;52.520;13.450;2023-04-05T21:56:56;20.90;71.30
49821;DHT22;36893;52.520;13.450;2023-04-05T22:06:57;20.90;71.10
49821;DHT22;36893;52.520;13.450;2023-04-05T22:16:57;20.90;71.10
49821;DHT22;36893;52.520;13.450;2023-04-05T22:26:58;20.90;71.10
49821;DHT22;36893;52.520;13.450;2023-04-05T22:36:59;20.90;71.10
49821;DHT22;36893;52.520;13.450;2023-04-05T22:46:59;20.90;71.10
49821;DHT22;36893;52.520;13.450;2023-04-05T22:57:00;20.90;71.00
49821;DHT22;36893;52.520;13.450;2023-04-05T23:07:01;20.90;71.00
49821;DHT22;36893;52.520;13.450;2023-04-05T23:17:01;20.90;71.00
49821;DHT22;36893;52.520;13.450;2023-04-05T23:27:02;20.80;70.80
49821;DHT22;36893;52.520;13.450;2023-04-05T23:37:03;20.80;70.80
49821;DHT22;36893;52.520;13.450;2023-04-05T23:47:04;20.80;70.80
49821;DHT22;36893;52.520;13.450;2023-04-05T23:57:04;20.80;70.70
